createdAt,value
2023-02-16T00:00:37.958Z,101377.01
2023-02-16T00:03:15.752Z,101372.59
2023-02-16T00:05:46.586Z,101373.42
2023-02-16T00:08:17.461Z,101371.53
2023-02-16T00:10:50.010Z,101365.89
2023-02-16T00:13:44.245Z,101372.56
2023-02-16T00:16:22.301Z,101368.73
2023-02-16T00:18:53.921Z,101366.05
2023-02-16T00:21:24.501Z,101364.53
2023-02-16T00:23:55.011Z,101358.50
2023-02-16T00:26:28.526Z,101361.59
2023-02-16T00:29:02.114Z,101362.87
2023-02-16T00:31:33.052Z,101356.39
2023-02-16T00:34:25.319Z,101363.61
2023-02-16T00:36:56.774Z,101350.19
2023-02-16T00:39:28.879Z,101357.86
2023-02-16T00:42:05.607Z,101345.03
2023-02-16T00:44:46.380Z,101343.87
2023-02-16T00:47:24.735Z,101341.48
2023-02-16T00:49:57.112Z,101342.48
2023-02-16T00:52:43.888Z,101344.13
2023-02-16T00:55:20.643Z,101336.77
2023-02-16T00:58:00.010Z,101335.97
2023-02-16T01:00:33.236Z,101333.80
2023-02-16T01:03:06.721Z,101335.12
2023-02-16T01:05:37.815Z,101330.02
2023-02-16T01:08:41.855Z,101322.70
2023-02-16T01:11:16.426Z,101315.13
2023-02-16T01:13:50.153Z,101306.38
2023-02-16T01:16:26.590Z,101305.62
2023-02-16T01:18:57.425Z,101304.02
2023-02-16T01:21:28.311Z,101302.17
2023-02-16T01:23:59.178Z,101302.98
2023-02-16T01:26:33.441Z,101294.25
2023-02-16T01:29:04.192Z,101293.23
2023-02-16T01:31:34.961Z,101298.16
2023-02-16T01:34:05.881Z,101289.98
2023-02-16T01:36:39.119Z,101286.94
2023-02-16T01:39:11.224Z,101276.57
2023-02-16T01:41:53.670Z,101276.27
2023-02-16T01:44:30.122Z,101277.80
2023-02-16T01:47:19.974Z,101274.03
2023-02-16T01:49:50.742Z,101272.39
2023-02-16T01:52:33.476Z,101261.09
2023-02-16T01:55:25.146Z,101259.34
2023-02-16T01:58:02.148Z,101260.58
2023-02-16T02:00:56.952Z,101260.66
2023-02-16T02:03:54.228Z,101255.19
2023-02-16T02:06:31.335Z,101260.00
2023-02-16T02:09:16.929Z,101247.00
2023-02-16T02:11:54.206Z,101247.13
2023-02-16T02:14:30.298Z,101243.28
2023-02-16T02:17:06.955Z,101242.86
2023-02-16T02:19:57.251Z,101237.70
2023-02-16T02:23:01.057Z,101224.36
2023-02-16T02:26:00.690Z,101221.28
2023-02-16T02:28:50.834Z,101215.48
2023-02-16T02:31:53.516Z,101224.20
2023-02-16T02:34:37.492Z,101218.41
2023-02-16T02:40:16.870Z,101219.22
2023-02-16T02:43:16.248Z,101220.36
2023-02-16T02:46:01.755Z,101206.09
2023-02-16T02:48:33.181Z,101206.41
2023-02-16T02:51:24.855Z,101201.60
2023-02-16T02:54:37.377Z,101196.27
2023-02-16T02:57:31.500Z,101202.00
2023-02-16T03:00:32.357Z,101196.27
2023-02-16T03:03:06.035Z,101190.09
2023-02-16T03:05:39.249Z,101186.22
2023-02-16T03:08:17.534Z,101176.20
2023-02-16T03:11:10.274Z,101183.52
2023-02-16T03:13:44.960Z,101185.98
2023-02-16T03:16:21.827Z,101196.23
2023-02-16T03:19:11.102Z,101196.50
2023-02-16T03:22:00.840Z,101193.48
2023-02-16T03:24:52.120Z,101202.59
2023-02-16T03:27:44.769Z,101205.06
2023-02-16T03:30:19.401Z,101199.59
2023-02-16T03:32:52.150Z,101217.03
2023-02-16T03:35:24.190Z,101216.33
2023-02-16T03:37:58.050Z,101207.66
2023-02-16T03:40:33.363Z,101198.83
2023-02-16T03:43:09.075Z,101198.44
2023-02-16T03:45:43.153Z,101194.36
2023-02-16T03:48:15.295Z,101200.35
2023-02-16T03:50:48.695Z,101196.16
2023-02-16T03:53:21.029Z,101194.06
2023-02-16T03:55:52.110Z,101193.41
2023-02-16T03:58:26.634Z,101185.98
2023-02-16T04:01:01.041Z,101193.50
2023-02-16T04:03:32.898Z,101184.22
2023-02-16T04:06:05.649Z,101183.09
2023-02-16T04:08:38.074Z,101177.58
2023-02-16T04:11:26.888Z,101177.09
2023-02-16T04:13:58.381Z,101174.31
2023-02-16T04:16:29.785Z,101169.38
2023-02-16T04:19:02.828Z,101169.42
2023-02-16T04:21:35.040Z,101166.27
2023-02-16T04:24:15.458Z,101165.07
2023-02-16T04:26:49.771Z,101163.66
2023-02-16T04:29:21.986Z,101171.55
2023-02-16T04:31:53.867Z,101174.23
2023-02-16T04:34:27.253Z,101178.71
2023-02-16T04:37:01.415Z,101179.33
2023-02-16T04:39:34.297Z,101184.48
2023-02-16T04:42:07.385Z,101186.27
2023-02-16T04:44:40.756Z,101191.94
2023-02-16T04:47:15.635Z,101196.19
2023-02-16T04:49:49.236Z,101183.73
2023-02-16T04:52:21.743Z,101179.19
2023-02-16T04:54:55.882Z,101185.03
2023-02-16T04:57:27.378Z,101185.20
2023-02-16T05:00:02.203Z,101190.08
2023-02-16T05:02:36.810Z,101180.77
2023-02-16T05:05:09.298Z,101173.69
2023-02-16T05:07:42.761Z,101170.05
2023-02-16T05:10:16.258Z,101166.09
2023-02-16T05:13:05.579Z,101166.31
2023-02-16T05:15:37.621Z,101163.38
2023-02-16T05:18:08.813Z,101158.04
2023-02-16T05:20:58.139Z,101157.27
2023-02-16T05:23:28.845Z,101154.86
2023-02-16T05:26:00.581Z,101144.14
2023-02-16T05:28:33.580Z,101144.94
2023-02-16T05:31:05.582Z,101147.54
2023-02-16T05:33:36.800Z,101146.39
2023-02-16T05:36:08.237Z,101149.30
2023-02-16T05:38:39.499Z,101150.23
2023-02-16T05:41:10.917Z,101144.27
2023-02-16T05:43:43.460Z,101138.56
2023-02-16T05:46:18.073Z,101140.22
2023-02-16T05:48:49.209Z,101142.23
2023-02-16T05:51:21.307Z,101131.64
2023-02-16T05:53:52.281Z,101136.59
2023-02-16T05:56:26.513Z,101133.46
2023-02-16T05:59:00.014Z,101136.99
2023-02-16T06:01:30.738Z,101142.05
2023-02-16T06:04:02.883Z,101144.20
2023-02-16T06:06:36.606Z,101135.88
2023-02-16T06:09:09.246Z,101139.88
2023-02-16T06:11:41.257Z,101133.91
2023-02-16T06:14:20.444Z,101149.00
2023-02-16T06:16:52.435Z,101137.84
2023-02-16T06:19:26.029Z,101159.94
2023-02-16T06:22:02.480Z,101148.05
2023-02-16T06:24:33.464Z,101142.42
2023-02-16T06:27:08.244Z,101152.34
2023-02-16T06:29:39.365Z,101151.34
2023-02-16T06:32:12.790Z,101162.75
2023-02-16T06:34:43.827Z,101161.20
2023-02-16T06:37:16.094Z,101159.86
2023-02-16T06:39:46.777Z,101156.47
2023-02-16T06:42:20.531Z,101151.35
2023-02-16T06:44:53.288Z,101166.90
2023-02-16T06:47:25.620Z,101168.19
2023-02-16T06:49:57.009Z,101173.86
2023-02-16T06:52:30.131Z,101159.84
2023-02-16T06:55:06.909Z,101168.53
2023-02-16T06:57:40.142Z,101155.23
2023-02-16T07:00:11.493Z,101154.96
2023-02-16T07:02:44.034Z,101144.09
2023-02-16T07:05:15.979Z,101150.69
2023-02-16T07:07:47.860Z,101150.75
2023-02-16T07:10:21.760Z,101138.11
2023-02-16T07:12:53.436Z,101138.07
2023-02-16T07:15:27.116Z,101132.61
2023-02-16T07:17:59.222Z,101140.22
2023-02-16T07:20:31.641Z,101144.59
2023-02-16T07:23:03.902Z,101141.44
2023-02-16T07:25:37.269Z,101141.97
2023-02-16T07:28:08.828Z,101135.94
2023-02-16T07:30:40.946Z,101122.11
2023-02-16T07:33:11.688Z,101116.80
2023-02-16T07:35:43.098Z,101120.25
2023-02-16T07:38:13.988Z,101120.89
2023-02-16T07:40:44.645Z,101117.95
2023-02-16T07:43:15.300Z,101123.28
2023-02-16T07:45:46.265Z,101115.70
2023-02-16T07:48:17.209Z,101115.22
2023-02-16T07:50:48.084Z,101118.43
2023-02-16T07:53:19.151Z,101115.28
2023-02-16T07:55:49.794Z,101111.65
2023-02-16T07:58:30.103Z,101117.31
2023-02-16T08:01:15.936Z,101115.47
2023-02-16T08:03:46.996Z,101114.28
2023-02-16T08:06:18.844Z,101120.17
2023-02-16T08:08:50.789Z,101118.39
2023-02-16T08:11:24.607Z,101115.89
2023-02-16T08:13:55.862Z,101125.25
2023-02-16T08:16:29.300Z,101131.08
2023-02-16T08:19:01.252Z,101131.83
2023-02-16T08:21:34.280Z,101116.94
2023-02-16T08:24:07.450Z,101119.41
2023-02-16T08:26:40.962Z,101120.62
2023-02-16T08:29:14.166Z,101124.23
2023-02-16T08:31:47.605Z,101134.14
2023-02-16T08:34:21.493Z,101125.48
2023-02-16T08:36:57.442Z,101130.59
2023-02-16T08:39:31.599Z,101132.43
2023-02-16T08:42:03.935Z,101135.37
2023-02-16T08:44:34.644Z,101138.19
2023-02-16T08:47:05.567Z,101136.41
2023-02-16T08:49:36.305Z,101140.00
2023-02-16T08:52:07.581Z,101136.30
2023-02-16T08:54:39.097Z,101132.05
2023-02-16T08:57:09.743Z,101135.95
2023-02-16T08:59:40.540Z,101132.91
2023-02-16T09:02:12.517Z,101142.92
2023-02-16T09:04:47.795Z,101142.43
2023-02-16T09:07:18.050Z,101139.38
2023-02-16T09:09:50.043Z,101138.29
2023-02-16T09:12:22.370Z,101134.91
2023-02-16T09:14:57.887Z,101130.95
2023-02-16T09:17:31.279Z,101144.05
2023-02-16T09:20:02.279Z,101147.66
2023-02-16T09:22:33.400Z,101148.40
2023-02-16T09:25:04.457Z,101143.30
2023-02-16T09:27:35.596Z,101150.89
2023-02-16T09:30:07.045Z,101136.55
2023-02-16T09:32:37.910Z,101143.62
2023-02-16T09:35:09.702Z,101152.54
2023-02-16T09:37:40.729Z,101150.05
2023-02-16T09:40:15.206Z,101150.69
2023-02-16T09:42:54.986Z,101159.73
2023-02-16T09:45:27.137Z,101147.45
2023-02-16T09:47:59.553Z,101154.38
2023-02-16T09:50:52.523Z,101158.70
2023-02-16T09:53:18.583Z,101149.56
2023-02-16T09:56:03.067Z,101149.39
2023-02-16T09:58:53.196Z,101145.87
2023-02-16T10:01:49.506Z,101133.95
2023-02-16T10:04:20.848Z,101134.64
2023-02-16T10:07:22.406Z,101138.63
2023-02-16T10:09:55.505Z,101106.09
2023-02-16T10:12:28.953Z,101129.34
2023-02-16T10:15:02.709Z,101148.14
2023-02-16T10:17:37.932Z,101136.36
2023-02-16T10:20:19.805Z,101134.44
2023-02-16T10:23:05.659Z,101138.09
2023-02-16T10:25:53.157Z,101146.56
2023-02-16T10:28:53.172Z,101131.45
2023-02-16T10:31:42.892Z,101136.58
2023-02-16T10:37:19.819Z,101124.23
2023-02-16T10:39:53.681Z,101119.59
2023-02-16T10:42:41.214Z,101118.06
2023-02-16T10:45:34.348Z,101118.56
2023-02-16T10:48:05.760Z,101109.73
2023-02-16T10:50:47.055Z,101114.46
2023-02-16T10:53:29.292Z,101119.04
2023-02-16T10:56:00.945Z,101113.97
2023-02-16T10:58:34.468Z,101110.75
2023-02-16T11:01:10.849Z,101119.53
2023-02-16T11:03:47.190Z,101111.33
2023-02-16T11:06:20.686Z,101107.90
2023-02-16T11:08:58.114Z,101114.08
2023-02-16T11:11:31.654Z,101102.00
2023-02-16T11:14:09.203Z,101107.22
2023-02-16T11:16:41.796Z,101098.15
2023-02-16T11:19:21.208Z,101097.14
2023-02-16T11:21:58.635Z,101102.36
2023-02-16T11:24:32.358Z,101087.05
2023-02-16T11:27:08.330Z,101092.09
2023-02-16T11:29:40.346Z,101079.95
2023-02-16T11:32:14.100Z,101080.53
2023-02-16T11:34:50.459Z,101084.41
2023-02-16T11:37:31.087Z,101092.48
2023-02-16T11:40:10.920Z,101082.62
2023-02-16T11:42:50.400Z,101078.90
2023-02-16T11:45:23.858Z,101085.30
2023-02-16T11:47:57.416Z,101081.20
2023-02-16T11:50:31.120Z,101077.42
2023-02-16T11:53:14.990Z,101080.17
2023-02-16T11:55:50.546Z,101079.31
2023-02-16T11:58:26.789Z,101079.11
2023-02-16T12:01:08.658Z,101086.23
2023-02-16T12:04:14.230Z,101089.36
2023-02-16T12:07:04.746Z,101086.13
2023-02-16T12:09:56.443Z,101081.19
2023-02-16T12:12:46.680Z,101088.44
2023-02-16T12:15:25.930Z,101078.93
2023-02-16T12:18:05.359Z,101080.77
2023-02-16T12:20:44.796Z,101079.50
2023-02-16T12:23:36.450Z,101064.20
2023-02-16T12:26:32.669Z,101066.20
2023-02-16T12:29:13.005Z,101064.09
2023-02-16T12:31:52.299Z,101064.77
2023-02-16T12:34:43.630Z,101048.09
2023-02-16T12:37:26.063Z,101053.89
2023-02-16T12:40:22.161Z,101046.50
2023-02-16T12:43:16.819Z,101041.95
2023-02-16T12:45:48.417Z,101038.44
2023-02-16T12:48:27.764Z,101028.06
2023-02-16T12:51:00.363Z,101033.67
2023-02-16T12:53:36.740Z,101040.00
2023-02-16T12:56:12.365Z,101025.95
2023-02-16T12:58:45.801Z,101022.07
2023-02-16T13:01:25.500Z,101023.20
2023-02-16T13:04:20.392Z,101019.09
2023-02-16T13:07:18.349Z,101014.99
2023-02-16T13:10:02.213Z,101013.72
2023-02-16T13:12:41.538Z,101008.98
2023-02-16T13:15:17.711Z,101024.69
2023-02-16T13:17:56.653Z,101013.11
2023-02-16T13:20:28.341Z,101011.26
2023-02-16T13:23:15.544Z,101005.75
2023-02-16T13:25:53.672Z,101003.87
2023-02-16T13:28:51.882Z,101011.89
2023-02-16T13:31:48.244Z,101002.34
2023-02-16T13:34:38.517Z,100999.75
2023-02-16T13:37:25.385Z,100994.59
2023-02-16T13:40:01.765Z,101004.92
2023-02-16T13:43:05.410Z,100993.00
2023-02-16T13:45:42.469Z,101001.62
2023-02-16T13:48:16.715Z,101003.35
2023-02-16T13:50:48.649Z,100990.49
2023-02-16T13:53:22.279Z,100994.68
2023-02-16T13:56:12.257Z,100988.50
2023-02-16T13:58:42.823Z,100981.16
2023-02-16T14:01:42.294Z,100981.67
2023-02-16T14:04:17.007Z,100991.08
2023-02-16T14:07:08.183Z,100987.19
2023-02-16T14:09:42.319Z,100995.48
2023-02-16T14:12:21.735Z,100985.35
2023-02-16T14:14:58.356Z,100983.53
2023-02-16T14:17:34.970Z,100991.42
2023-02-16T14:20:17.361Z,100981.78
2023-02-16T14:22:55.984Z,100990.08
2023-02-16T14:25:30.906Z,100994.14
2023-02-16T14:28:07.857Z,100992.95
2023-02-16T14:30:50.151Z,100990.05
2023-02-16T14:33:23.695Z,100989.69
2023-02-16T14:36:07.211Z,100996.64
2023-02-16T14:38:47.788Z,100989.69
2023-02-16T14:41:30.757Z,100988.17
2023-02-16T14:44:09.974Z,100980.45
2023-02-16T14:47:00.952Z,100991.88
2023-02-16T14:49:52.280Z,100979.30
2023-02-16T14:52:53.400Z,100975.27
2023-02-16T14:55:29.969Z,100973.33
2023-02-16T14:58:38.254Z,100982.27
2023-02-16T15:01:14.514Z,100983.24
2023-02-16T15:03:56.553Z,100976.27
2023-02-16T15:06:30.261Z,100972.13
2023-02-16T15:09:04.158Z,100968.98
2023-02-16T15:11:42.099Z,100971.30
2023-02-16T15:14:14.436Z,100967.98
2023-02-16T15:16:45.959Z,100961.30
2023-02-16T15:19:21.674Z,100963.97
2023-02-16T15:22:11.272Z,100957.28
2023-02-16T15:24:43.194Z,100954.77
2023-02-16T15:27:26.092Z,100954.75
2023-02-16T15:30:09.716Z,100950.75
2023-02-16T15:32:41.354Z,100951.88
2023-02-16T15:35:14.498Z,100949.73
2023-02-16T15:37:45.050Z,100953.41
2023-02-16T15:40:25.435Z,100949.73
2023-02-16T15:42:52.023Z,100934.80
2023-02-16T15:45:30.786Z,100953.17
2023-02-16T15:48:37.055Z,100951.38
2023-02-16T15:51:11.342Z,100944.20
2023-02-16T15:53:59.916Z,100938.52
2023-02-16T15:56:51.509Z,100949.88
2023-02-16T15:59:47.906Z,100947.31
2023-02-16T16:02:24.506Z,100917.48
2023-02-16T16:05:01.326Z,100947.50
2023-02-16T16:07:35.890Z,100944.32
2023-02-16T16:10:12.306Z,100928.84
2023-02-16T16:12:46.730Z,100957.48
2023-02-16T16:15:24.100Z,100949.36
2023-02-16T16:17:57.660Z,100956.69
2023-02-16T16:20:34.972Z,101073.67
2023-02-16T16:23:17.727Z,100934.37
2023-02-16T16:25:51.934Z,100949.69
2023-02-16T16:28:32.318Z,100949.69
2023-02-16T16:31:11.740Z,100955.25
2023-02-16T16:34:03.908Z,100936.11
2023-02-16T16:36:47.391Z,100985.52
2023-02-16T16:39:22.330Z,100938.77
2023-02-16T16:42:18.490Z,100966.84
2023-02-16T16:45:08.020Z,100959.82
2023-02-16T16:47:41.568Z,100921.78
2023-02-16T16:50:15.787Z,100963.28
2023-02-16T16:52:52.299Z,100940.50
2023-02-16T16:55:27.084Z,100937.45
2023-02-16T16:58:01.188Z,100937.45
2023-02-16T17:00:34.876Z,100964.48
2023-02-16T17:03:07.964Z,100938.75
2023-02-16T17:05:40.872Z,100938.75
2023-02-16T17:08:13.789Z,100954.98
2023-02-16T17:10:44.895Z,100961.66
2023-02-16T17:13:19.362Z,100963.44
2023-02-16T17:15:55.635Z,100956.54
2023-02-16T17:18:26.214Z,100958.08
2023-02-16T17:20:57.611Z,100957.95
2023-02-16T17:23:28.182Z,100956.19
2023-02-16T17:26:02.016Z,100959.21
2023-02-16T17:28:36.994Z,100950.44
2023-02-16T17:31:09.723Z,100957.10
2023-02-16T17:33:41.950Z,100957.91
2023-02-16T17:36:15.678Z,100958.40
2023-02-16T17:38:47.249Z,100956.22
2023-02-16T17:41:27.835Z,100959.05
2023-02-16T17:43:59.281Z,100959.53
2023-02-16T17:46:33.044Z,100954.45
2023-02-16T17:49:05.375Z,100952.63
2023-02-16T17:51:36.641Z,100945.13
2023-02-16T17:54:11.896Z,100945.06
2023-02-16T17:56:44.938Z,100947.62
2023-02-16T17:59:16.495Z,100948.66
2023-02-16T18:01:48.550Z,100959.25
2023-02-16T18:04:19.951Z,100950.19
2023-02-16T18:06:51.779Z,100950.70
2023-02-16T18:09:23.998Z,100951.08
2023-02-16T18:11:54.566Z,100944.58
2023-02-16T18:14:25.251Z,100943.99
2023-02-16T18:16:58.538Z,100954.59
2023-02-16T18:19:32.084Z,100942.58
2023-02-16T18:22:03.816Z,100945.95
2023-02-16T18:24:36.064Z,100943.28
2023-02-16T18:27:07.221Z,100942.55
2023-02-16T18:29:38.083Z,100946.05
2023-02-16T18:32:09.910Z,100945.59
2023-02-16T18:34:40.542Z,100952.83
2023-02-16T18:37:11.058Z,100948.73
2023-02-16T18:39:43.014Z,100947.65
2023-02-16T18:42:13.788Z,100948.45
2023-02-16T18:44:48.495Z,100939.13
2023-02-16T18:47:19.755Z,100953.60
2023-02-16T18:49:52.819Z,100949.50
2023-02-16T18:52:23.937Z,100948.70
2023-02-16T18:54:55.308Z,100949.52
2023-02-16T18:57:28.944Z,100942.25
2023-02-16T19:00:00.847Z,100947.20
2023-02-16T19:02:31.951Z,100932.11
2023-02-16T19:05:03.672Z,100946.03
2023-02-16T19:07:35.451Z,100941.34
2023-02-16T19:10:10.092Z,100945.95
2023-02-16T19:12:42.283Z,100944.74
2023-02-16T19:15:14.686Z,100931.13
2023-02-16T19:17:46.139Z,100943.96
2023-02-16T19:20:19.219Z,100932.63
2023-02-16T19:22:51.774Z,100933.37
2023-02-16T19:25:24.055Z,100920.48
2023-02-16T19:27:56.110Z,100928.84
2023-02-16T19:30:30.099Z,100934.80
2023-02-16T19:33:04.361Z,100929.94
2023-02-16T19:35:39.063Z,100936.48
2023-02-16T19:38:11.092Z,100928.48
2023-02-16T19:40:46.271Z,100928.39
2023-02-16T19:43:18.360Z,100928.09
2023-02-16T19:45:52.383Z,100925.27
2023-02-16T19:48:25.021Z,100923.16
2023-02-16T19:51:00.963Z,100920.41
2023-02-16T19:53:33.031Z,100911.72
2023-02-16T19:56:07.972Z,100930.67
2023-02-16T19:58:39.082Z,100922.55
2023-02-16T20:01:12.493Z,100915.30
2023-02-16T20:03:44.867Z,100912.20
2023-02-16T20:06:18.397Z,100913.76
2023-02-16T20:08:51.020Z,100922.34
2023-02-16T20:11:24.188Z,100923.51
2023-02-16T20:13:57.213Z,100923.16
2023-02-16T20:16:29.715Z,100916.11
2023-02-16T20:19:01.444Z,100915.47
2023-02-16T20:21:33.175Z,100914.41
2023-02-16T20:24:07.156Z,100916.72
2023-02-16T20:26:41.922Z,100913.70
2023-02-16T20:29:17.358Z,100920.05
2023-02-16T20:31:54.337Z,100914.63
2023-02-16T20:34:28.358Z,100908.33
2023-02-16T20:36:59.800Z,100907.63
2023-02-16T20:39:31.538Z,100913.52
2023-02-16T20:42:05.124Z,100920.80
2023-02-16T20:44:36.438Z,100911.59
2023-02-16T20:47:10.702Z,100911.75
2023-02-16T20:49:42.589Z,100914.55
2023-02-16T20:52:13.921Z,100908.72
2023-02-16T20:54:45.159Z,100912.77
2023-02-16T20:57:26.502Z,100911.20
2023-02-16T20:59:49.353Z,100906.02
2023-02-16T21:02:22.013Z,100905.27
2023-02-16T21:04:55.907Z,100909.24
2023-02-16T21:07:26.610Z,100912.02
2023-02-16T21:09:57.597Z,100902.39
2023-02-16T21:12:28.466Z,100906.99
2023-02-16T21:14:59.115Z,100908.83
2023-02-16T21:17:29.819Z,100913.03
2023-02-16T21:20:00.552Z,100906.48
2023-02-16T21:22:31.228Z,100902.59
2023-02-16T21:25:02.144Z,100911.99
2023-02-16T21:27:32.964Z,100910.64
2023-02-16T21:30:03.786Z,100905.28
2023-02-16T21:32:34.742Z,100903.30
2023-02-16T21:35:05.575Z,100912.02
2023-02-16T21:37:38.980Z,100908.23
2023-02-16T21:40:29.199Z,100910.77
2023-02-16T21:43:00.434Z,100913.72
2023-02-16T21:45:32.595Z,100901.82
2023-02-16T21:48:21.537Z,100913.24
2023-02-16T21:50:52.347Z,100910.03
2023-02-16T21:53:23.593Z,100903.72
2023-02-16T21:56:12.452Z,100897.31
2023-02-16T21:58:43.787Z,100908.78
2023-02-16T22:01:15.258Z,100894.97
2023-02-16T22:03:46.053Z,100901.05
2023-02-16T22:06:17.009Z,100892.70
2023-02-16T22:08:47.908Z,100887.81
2023-02-16T22:11:18.826Z,100891.98
2023-02-16T22:13:53.016Z,100897.18
2023-02-16T22:16:24.190Z,100899.54
2023-02-16T22:19:05.013Z,100896.92
2023-02-16T22:21:38.104Z,100895.00
2023-02-16T22:24:09.692Z,100888.98
2023-02-16T22:26:40.541Z,100895.54
2023-02-16T22:29:12.045Z,100897.28
2023-02-16T22:31:49.191Z,100892.91
2023-02-16T22:34:24.602Z,100888.77
2023-02-16T22:36:54.567Z,100874.31
2023-02-16T22:39:31.152Z,100873.45
2023-02-16T22:42:00.308Z,100870.81
2023-02-16T22:44:31.023Z,100870.48
2023-02-16T22:47:02.642Z,100870.50
2023-02-16T22:49:36.470Z,100861.11
2023-02-16T22:52:11.629Z,100850.08
2023-02-16T22:54:42.172Z,100856.37
2023-02-16T22:57:12.801Z,100850.55
2023-02-16T22:59:44.519Z,100854.41
2023-02-16T23:02:15.255Z,100850.11
2023-02-16T23:04:47.476Z,100848.40
2023-02-16T23:07:19.316Z,100848.07
2023-02-16T23:09:49.931Z,100841.55
2023-02-16T23:12:20.673Z,100843.31
2023-02-16T23:14:56.825Z,100842.52
2023-02-16T23:17:28.235Z,100842.52
2023-02-16T23:19:59.011Z,100766.14
2023-02-16T23:22:31.963Z,100842.05
2023-02-16T23:25:26.241Z,100836.16
2023-02-16T23:28:12.712Z,100842.94
2023-02-16T23:30:52.935Z,100842.94
2023-02-16T23:33:24.039Z,100838.52
2023-02-16T23:35:55.118Z,100834.48
2023-02-16T23:38:26.011Z,100832.30
2023-02-16T23:41:05.037Z,100831.09
2023-02-16T23:43:36.006Z,100836.75
2023-02-16T23:46:07.535Z,100833.91
2023-02-16T23:48:41.038Z,100833.91
2023-02-16T23:51:13.344Z,100832.97
2023-02-16T23:53:43.995Z,100849.73
2023-02-16T23:56:23.851Z,100855.78
2023-02-16T23:59:00.230Z,100846.52
